Time;durP1;ratioP1;P1;durP2;ratioP2;P2;SDS_P1;SDS_P2;PMS_P1;PMS_P2;Temp;Humidity;BMP_temperature;BMP_pressure;BME280_temperature;BME280_humidity;BME280_pressure;Samples;Min_cycle;Max_cycle;Signal;HPM_P1;HPM_P2
2024/02/27 00:01:41;;;;;;;;;;;18.00;41.90;;;;;;1563146;74;701;-75
2024/02/27 00:03:43;;;;;;;;;;;17.90;41.90;;;;;;1583157;74;646;-76
2024/02/27 00:05:45;;;;;;;;;;;18.00;41.90;;;;;;1576620;74;1905;-74
2024/02/27 00:07:47;;;;;;;;;;;18.00;41.90;;;;;;1572442;74;1054;-73
2024/02/27 00:09:49;;;;;;;;;;;18.00;41.90;;;;;;1560984;74;1135;-72
2024/02/27 00:11:50;;;;;;;;;;;17.90;41.90;;;;;;1574945;74;769;-74
2024/02/27 00:13:52;;;;;;;;;;;17.90;41.90;;;;;;1580200;74;702;-75
2024/02/27 00:15:54;;;;;;;;;;;17.90;42.00;;;;;;1571858;74;696;-75
2024/02/27 00:17:56;;;;;;;;;;;17.90;41.90;;;;;;1580315;74;677;-74
2024/02/27 00:19:58;;;;;;;;;;;18.00;42.00;;;;;;1579996;74;1138;-75
2024/02/27 00:22:00;;;;;;;;;;;17.90;42.00;;;;;;1564475;74;637;-75
2024/02/27 00:24:02;;;;;;;;;;;17.90;42.00;;;;;;1570583;74;674;-73
2024/02/27 00:26:04;;;;;;;;;;;17.90;41.90;;;;;;1561516;74;1905;-72
2024/02/27 00:28:06;;;;;;;;;;;17.90;42.00;;;;;;1565294;74;710;-74
2024/02/27 00:30:08;;;;;;;;;;;17.90;41.90;;;;;;1576467;74;1150;-74
2024/02/27 00:32:10;;;;;;;;;;;18.00;41.90;;;;;;1570128;74;1361;-73
2024/02/27 00:34:16;;;;;;;;;;;17.90;41.90;;;;;;1564864;74;717;-71
2024/02/27 00:36:15;;;;;;;;;;;17.90;41.90;;;;;;1560148;74;1145;-76
2024/02/27 00:38:17;;;;;;;;;;;17.90;41.90;;;;;;1574743;74;562;-76
2024/02/27 00:40:19;;;;;;;;;;;18.00;41.90;;;;;;1564097;74;1166;-73
2024/02/27 00:42:21;;;;;;;;;;;17.90;41.90;;;;;;1583727;74;733;-75
2024/02/27 00:44:26;;;;;;;;;;;17.90;42.00;;;;;;1576880;74;732;-73
2024/02/27 00:46:28;;;;;;;;;;;18.00;42.00;;;;;;1570568;74;1919;-76
2024/02/27 00:48:30;;;;;;;;;;;18.00;42.00;;;;;;1568249;74;789;-77
2024/02/27 00:50:32;;;;;;;;;;;18.00;42.00;;;;;;1574234;74;1171;-73
2024/02/27 00:52:34;;;;;;;;;;;18.00;42.00;;;;;;1557007;74;653;-74
2024/02/27 00:54:35;;;;;;;;;;;18.00;42.00;;;;;;1577552;74;910;-74
2024/02/27 00:56:37;;;;;;;;;;;18.00;41.90;;;;;;1562866;74;693;-75
2024/02/27 00:58:41;;;;;;;;;;;17.90;41.90;;;;;;1574270;74;718;-79
2024/02/27 01:00:43;;;;;;;;;;;18.00;42.00;;;;;;1572675;74;1859;-76
2024/02/27 01:02:45;;;;;;;;;;;17.90;42.00;;;;;;1572896;74;739;-72
2024/02/27 01:04:46;;;;;;;;;;;17.90;41.90;;;;;;1569271;74;726;-77
2024/02/27 01:06:48;;;;;;;;;;;17.90;41.90;;;;;;1565047;74;1943;-76
2024/02/27 01:08:50;;;;;;;;;;;17.90;42.00;;;;;;1564571;74;703;-80
2024/02/27 01:10:52;;;;;;;;;;;18.00;42.00;;;;;;1569251;74;1146;-72
2024/02/27 01:12:54;;;;;;;;;;;17.90;42.00;;;;;;1566865;74;708;-72
2024/02/27 01:14:56;;;;;;;;;;;18.00;42.00;;;;;;1572313;74;815;-75
2024/02/27 01:16:59;;;;;;;;;;;17.90;42.00;;;;;;1577764;74;683;-75
2024/02/27 01:19:01;;;;;;;;;;;18.00;42.00;;;;;;1572044;74;686;-77
2024/02/27 01:21:05;;;;;;;;;;;17.90;42.00;;;;;;1576618;74;1109;-73
2024/02/27 01:23:06;;;;;;;;;;;18.00;42.00;;;;;;1571873;74;767;-72
2024/02/27 01:25:12;;;;;;;;;;;18.00;42.00;;;;;;1571748;74;1938;-76
2024/02/27 01:27:12;;;;;;;;;;;18.00;42.10;;;;;;1574625;74;988;-73
2024/02/27 01:29:14;;;;;;;;;;;17.90;41.90;;;;;;1567827;74;1567;-72
2024/02/27 01:31:16;;;;;;;;;;;18.00;42.00;;;;;;1563555;74;1115;-74
2024/02/27 01:33:17;;;;;;;;;;;18.00;41.90;;;;;;1565836;74;787;-75
2024/02/27 01:35:19;;;;;;;;;;;17.90;42.00;;;;;;1559400;75;584;-73
2024/02/27 01:37:21;;;;;;;;;;;17.90;41.90;;;;;;1565459;74;675;-73
2024/02/27 01:39:26;;;;;;;;;;;18.00;42.00;;;;;;1564640;74;696;-74
2024/02/27 01:41:27;;;;;;;;;;;18.00;41.90;;;;;;1574649;74;1692;-77
2024/02/27 01:43:29;;;;;;;;;;;18.00;41.90;;;;;;1575751;74;699;-75
2024/02/27 01:45:31;;;;;;;;;;;17.90;41.90;;;;;;1561257;74;1935;-74
2024/02/27 01:47:33;;;;;;;;;;;17.90;42.00;;;;;;1573059;74;626;-73
2024/02/27 01:49:35;;;;;;;;;;;18.00;41.90;;;;;;1582285;74;1148;-74
2024/02/27 01:51:37;;;;;;;;;;;18.00;41.90;;;;;;1567554;74;670;-73
2024/02/27 01:53:39;;;;;;;;;;;17.90;41.90;;;;;;1567896;74;705;-74
2024/02/27 01:55:42;;;;;;;;;;;17.90;42.00;;;;;;1570387;74;810;-74
2024/02/27 01:57:44;;;;;;;;;;;18.00;42.00;;;;;;1558406;74;728;-74
2024/02/27 01:59:46;;;;;;;;;;;18.00;42.00;;;;;;1560105;74;1199;-73
2024/02/27 02:01:49;;;;;;;;;;;18.00;42.00;;;;;;1567505;74;745;-77
2024/02/27 02:03:52;;;;;;;;;;;17.90;42.00;;;;;;1558828;74;1692;-78
2024/02/27 02:05:55;;;;;;;;;;;17.90;42.00;;;;;;1573831;74;1923;-76
2024/02/27 02:07:58;;;;;;;;;;;18.00;42.00;;;;;;1583719;74;686;-79
2024/02/27 02:10:00;;;;;;;;;;;18.00;41.90;;;;;;1559620;74;1151;-74
2024/02/27 02:12:02;;;;;;;;;;;17.90;42.00;;;;;;1579497;74;785;-74
2024/02/27 02:14:04;;;;;;;;;;;18.00;41.90;;;;;;1568431;74;682;-78
2024/02/27 02:16:05;;;;;;;;;;;18.00;42.00;;;;;;1563218;74;739;-74
2024/02/27 02:18:07;;;;;;;;;;;18.00;42.00;;;;;;1559987;74;645;-78
2024/02/27 02:20:09;;;;;;;;;;;18.00;42.00;;;;;;1570029;74;1139;-74
2024/02/27 02:22:11;;;;;;;;;;;17.90;41.90;;;;;;1570431;74;710;-73
2024/02/27 02:24:13;;;;;;;;;;;17.90;42.00;;;;;;1580206;74;660;-72
2024/02/27 02:26:15;;;;;;;;;;;17.80;41.80;;;;;;1574742;74;1937;-72
2024/02/27 02:28:17;;;;;;;;;;;17.90;41.90;;;;;;1581299;74;717;-79
2024/02/27 02:30:19;;;;;;;;;;;17.90;42.00;;;;;;1561280;75;1162;-77
2024/02/27 02:32:21;;;;;;;;;;;18.00;41.90;;;;;;1572106;74;728;-79
2024/02/27 02:34:23;;;;;;;;;;;17.90;42.00;;;;;;1576060;74;659;-74
2024/02/27 02:36:25;;;;;;;;;;;17.90;42.00;;;;;;1569392;74;663;-77
2024/02/27 02:38:27;;;;;;;;;;;17.90;41.90;;;;;;1562317;74;593;-72
2024/02/27 02:40:31;;;;;;;;;;;17.90;42.00;;;;;;1566275;74;1164;-76
2024/02/27 02:42:32;;;;;;;;;;;18.00;42.00;;;;;;1573372;74;988;-73
2024/02/27 02:44:34;;;;;;;;;;;18.00;42.00;;;;;;1576034;74;694;-74
2024/02/27 02:46:37;;;;;;;;;;;17.90;42.00;;;;;;1549951;74;1921;-72
2024/02/27 02:48:40;;;;;;;;;;;17.90;41.90;;;;;;1567585;74;704;-74
2024/02/27 02:50:42;;;;;;;;;;;17.90;42.00;;;;;;1569484;74;1149;-73
2024/02/27 02:52:44;;;;;;;;;;;18.00;42.00;;;;;;1586153;74;687;-73
2024/02/27 02:54:45;;;;;;;;;;;18.00;42.00;;;;;;1569398;75;732;-73
2024/02/27 02:56:47;;;;;;;;;;;17.90;41.90;;;;;;1579510;74;700;-73
2024/02/27 02:58:49;;;;;;;;;;;18.00;42.00;;;;;;1573332;74;738;-72
2024/02/27 03:00:51;;;;;;;;;;;18.00;42.00;;;;;;1560056;74;1166;-71
2024/02/27 03:02:53;;;;;;;;;;;17.90;42.00;;;;;;1570700;74;686;-73
2024/02/27 03:04:55;;;;;;;;;;;17.90;42.00;;;;;;1568481;74;732;-78
2024/02/27 03:06:57;;;;;;;;;;;18.00;41.90;;;;;;1581105;74;1908;-77
2024/02/27 03:09:00;;;;;;;;;;;18.00;42.00;;;;;;1582187;74;709;-71
2024/02/27 03:11:01;;;;;;;;;;;17.90;41.90;;;;;;1558994;74;1170;-77
2024/02/27 03:13:03;;;;;;;;;;;17.90;42.00;;;;;;1573144;74;542;-73
2024/02/27 03:15:06;;;;;;;;;;;18.10;42.10;;;;;;1562759;74;694;-78
2024/02/27 03:17:08;;;;;;;;;;;17.90;42.00;;;;;;1577420;74;798;-74
2024/02/27 03:19:10;;;;;;;;;;;18.00;42.00;;;;;;1577884;74;675;-74
2024/02/27 03:21:12;;;;;;;;;;;17.90;42.00;;;;;;1571432;74;1922;-72
2024/02/27 03:23:14;;;;;;;;;;;18.00;42.00;;;;;;1585973;74;661;-73
2024/02/27 03:25:16;;;;;;;;;;;18.00;42.00;;;;;;1572687;74;667;-73
2024/02/27 03:27:18;;;;;;;;;;;18.00;42.00;;;;;;1577616;74;1922;-73
2024/02/27 03:29:20;;;;;;;;;;;18.00;42.00;;;;;;1576498;74;658;-76
2024/02/27 03:31:21;;;;;;;;;;;18.00;42.00;;;;;;1570978;74;1144;-73
2024/02/27 03:33:23;;;;;;;;;;;18.00;42.00;;;;;;1560840;74;927;-76
2024/02/27 03:35:25;;;;;;;;;;;17.90;42.00;;;;;;1567391;74;692;-77
2024/02/27 03:37:27;;;;;;;;;;;17.80;41.90;;;;;;1566974;74;717;-77
2024/02/27 03:39:29;;;;;;;;;;;17.90;42.00;;;;;;1569060;74;872;-74
2024/02/27 03:41:31;;;;;;;;;;;17.90;42.00;;;;;;1565996;74;1193;-78
2024/02/27 03:43:33;;;;;;;;;;;17.90;42.00;;;;;;1568724;74;755;-74
2024/02/27 03:45:37;;;;;;;;;;;17.90;42.00;;;;;;1574508;74;803;-77
2024/02/27 03:47:38;;;;;;;;;;;17.90;42.00;;;;;;1564058;74;1947;-75
2024/02/27 03:49:40;;;;;;;;;;;17.90;42.00;;;;;;1570711;74;1158;-73
2024/02/27 03:51:42;;;;;;;;;;;17.90;42.00;;;;;;1562694;74;631;-73
2024/02/27 03:53:44;;;;;;;;;;;17.90;42.00;;;;;;1568320;74;699;-75
2024/02/27 03:55:46;;;;;;;;;;;17.90;42.00;;;;;;1562261;74;734;-73
2024/02/27 03:57:48;;;;;;;;;;;18.00;42.00;;;;;;1574951;74;671;-74
2024/02/27 03:59:50;;;;;;;;;;;18.00;42.00;;;;;;1565995;74;1116;-77
2024/02/27 04:01:52;;;;;;;;;;;17.90;42.00;;;;;;1564058;74;770;-75
2024/02/27 04:03:54;;;;;;;;;;;17.90;42.00;;;;;;1578887;74;803;-74
2024/02/27 04:05:56;;;;;;;;;;;18.00;42.00;;;;;;1564775;74;701;-77
2024/02/27 04:07:58;;;;;;;;;;;18.00;42.00;;;;;;1565562;74;1943;-78
2024/02/27 04:09:59;;;;;;;;;;;17.90;42.00;;;;;;1579893;74;1117;-74
2024/02/27 04:12:01;;;;;;;;;;;17.90;41.90;;;;;;1576482;74;743;-78
2024/02/27 04:14:05;;;;;;;;;;;18.00;42.00;;;;;;1582586;74;760;-74
2024/02/27 04:16:07;;;;;;;;;;;17.90;42.00;;;;;;1510985;78;2050;-74
2024/02/27 04:18:09;;;;;;;;;;;17.90;42.00;;;;;;1508916;78;970;-74
2024/02/27 04:20:11;;;;;;;;;;;18.00;41.90;;;;;;1516908;77;1185;-79
2024/02/27 04:22:13;;;;;;;;;;;17.90;42.00;;;;;;1526292;76;797;-74
2024/02/27 04:24:15;;;;;;;;;;;17.90;42.00;;;;;;1505814;78;717;-76
2024/02/27 04:26:17;;;;;;;;;;;17.90;42.00;;;;;;1529235;76;1929;-75
2024/02/27 04:28:19;;;;;;;;;;;17.80;41.90;;;;;;1504818;78;706;-74
2024/02/27 04:30:21;;;;;;;;;;;18.00;42.00;;;;;;1517421;76;1112;-75
2024/02/27 04:32:23;;;;;;;;;;;17.90;42.00;;;;;;1498201;78;751;-76
2024/02/27 04:34:25;;;;;;;;;;;17.90;41.90;;;;;;1498928;78;687;-75
2024/02/27 04:36:27;;;;;;;;;;;18.00;41.90;;;;;;1500562;78;519;-75
2024/02/27 04:38:29;;;;;;;;;;;17.90;42.00;;;;;;1510315;78;672;-76
2024/02/27 04:40:30;;;;;;;;;;;17.90;42.00;;;;;;1517950;77;1143;-71
2024/02/27 04:42:32;;;;;;;;;;;18.00;41.90;;;;;;1542937;76;727;-73
2024/02/27 04:44:34;;;;;;;;;;;17.90;42.00;;;;;;1539858;76;615;-72
2024/02/27 04:46:36;;;;;;;;;;;18.00;42.00;;;;;;1489432;78;1918;-73
2024/02/27 04:48:38;;;;;;;;;;;17.90;42.00;;;;;;1503519;78;692;-73
2024/02/27 04:50:40;;;;;;;;;;;18.00;42.00;;;;;;1510046;78;1158;-74
2024/02/27 04:52:42;;;;;;;;;;;18.00;42.00;;;;;;1564519;74;731;-71
2024/02/27 04:54:44;;;;;;;;;;;17.90;42.00;;;;;;1582007;74;752;-73
2024/02/27 04:56:45;;;;;;;;;;;17.90;42.00;;;;;;1569621;74;679;-72
2024/02/27 04:58:47;;;;;;;;;;;17.90;42.00;;;;;;1573472;74;665;-73
2024/02/27 05:00:49;;;;;;;;;;;18.00;42.00;;;;;;1565266;74;1161;-77
2024/02/27 05:02:51;;;;;;;;;;;18.00;42.00;;;;;;1575346;74;678;-74
2024/02/27 05:04:53;;;;;;;;;;;18.00;42.00;;;;;;1585797;74;686;-75
2024/02/27 05:06:55;;;;;;;;;;;18.00;42.00;;;;;;1573230;74;1945;-73
2024/02/27 05:08:57;;;;;;;;;;;18.00;42.00;;;;;;1573388;74;760;-72
2024/02/27 05:10:59;;;;;;;;;;;17.90;41.90;;;;;;1577707;74;1122;-74
2024/02/27 05:13:00;;;;;;;;;;;18.00;42.00;;;;;;1572158;74;691;-74
2024/02/27 05:15:02;;;;;;;;;;;18.00;42.00;;;;;;1566775;74;1681;-72
2024/02/27 05:17:04;;;;;;;;;;;18.00;41.90;;;;;;1571320;74;565;-74
2024/02/27 05:19:06;;;;;;;;;;;17.90;42.00;;;;;;1574717;74;987;-74
2024/02/27 05:21:08;;;;;;;;;;;18.00;42.10;;;;;;1578355;74;1115;-77
2024/02/27 05:23:10;;;;;;;;;;;17.90;42.00;;;;;;1579120;74;705;-74
2024/02/27 05:25:12;;;;;;;;;;;17.90;42.00;;;;;;1572069;74;556;-73
2024/02/27 05:27:14;;;;;;;;;;;18.00;41.90;;;;;;1569338;75;1925;-73
2024/02/27 05:29:16;;;;;;;;;;;17.90;41.90;;;;;;1578394;74;714;-71
2024/02/27 05:31:23;;;;;;;;;;;18.00;42.00;;;;;;1579419;74;1076;-73
2024/02/27 05:33:25;;;;;;;;;;;17.90;42.00;;;;;;1568378;74;604;-77
2024/02/27 05:35:27;;;;;;;;;;;17.90;42.00;;;;;;1565902;74;511;-75
2024/02/27 05:37:29;;;;;;;;;;;17.90;41.90;;;;;;1568138;74;758;-76
2024/02/27 05:39:31;;;;;;;;;;;17.90;39.40;;;;;;1562205;74;697;-72
2024/02/27 05:41:33;;;;;;;;;;;17.70;38.10;;;;;;1574752;74;726;-78
2024/02/27 05:43:35;;;;;;;;;;;17.70;39.60;;;;;;1581444;74;766;-75
2024/02/27 05:45:37;;;;;;;;;;;17.60;40.10;;;;;;1564231;74;702;-76
2024/02/27 05:47:39;;;;;;;;;;;17.70;40.70;;;;;;1566005;74;1942;-77
2024/02/27 05:49:41;;;;;;;;;;;17.70;41.10;;;;;;1568704;74;1125;-78
2024/02/27 05:51:43;;;;;;;;;;;17.70;41.30;;;;;;1568788;74;710;-79
2024/02/27 05:53:45;;;;;;;;;;;17.70;41.40;;;;;;1567945;74;686;-81
2024/02/27 05:55:46;;;;;;;;;;;17.70;41.40;;;;;;1579992;74;755;-79
2024/02/27 05:57:48;;;;;;;;;;;17.70;41.40;;;;;;1572597;74;683;-77
2024/02/27 05:59:50;;;;;;;;;;;17.70;41.50;;;;;;1565128;74;1223;-79
2024/02/27 06:01:52;;;;;;;;;;;17.70;41.40;;;;;;1577784;74;748;-76
2024/02/27 06:03:54;;;;;;;;;;;17.70;41.40;;;;;;1584452;74;820;-79
2024/02/27 06:05:56;;;;;;;;;;;17.80;41.40;;;;;;1574814;74;764;-78
2024/02/27 06:07:58;;;;;;;;;;;17.80;41.30;;;;;;1575524;74;1934;-81
2024/02/27 06:09:59;;;;;;;;;;;17.80;41.40;;;;;;1574004;74;1557;-81
2024/02/27 06:12:01;;;;;;;;;;;17.80;41.40;;;;;;1584041;74;755;-79
2024/02/27 06:14:03;;;;;;;;;;;17.80;41.30;;;;;;1579218;74;782;-80
2024/02/27 06:16:05;;;;;;;;;;;17.80;41.30;;;;;;1581549;74;705;-81
2024/02/27 06:18:13;;;;;;;;;;;17.80;41.40;;;;;;1580595;74;714;-81
2024/02/27 06:22:10;;;;;;;;;;;17.80;41.30;;;;;;1505313;78;1168;-79
2024/02/27 06:22:14;;;;;;;;;;;17.80;41.30;;;;;;1574634;74;1000;-80
2024/02/27 06:24:16;;;;;;;;;;;17.80;41.40;;;;;;1582816;74;741;-79
2024/02/27 06:26:18;;;;;;;;;;;17.80;41.30;;;;;;1582995;74;730;-79
2024/02/27 06:28:20;;;;;;;;;;;17.90;41.50;;;;;;1585223;74;1930;-79
2024/02/27 06:30:22;;;;;;;;;;;17.90;41.50;;;;;;1582053;74;1124;-78
2024/02/27 06:32:24;;;;;;;;;;;17.80;41.30;;;;;;1578127;74;718;-80
2024/02/27 06:34:26;;;;;;;;;;;17.80;41.30;;;;;;1579923;74;701;-79
2024/02/27 06:36:28;;;;;;;;;;;17.90;41.40;;;;;;1581372;74;699;-81
2024/02/27 06:38:30;;;;;;;;;;;17.90;41.40;;;;;;1578608;74;676;-82
2024/02/27 06:40:32;;;;;;;;;;;17.80;41.30;;;;;;1584605;74;1123;-79
2024/02/27 06:42:37;;;;;;;;;;;17.80;41.20;;;;;;1578969;74;758;-77
2024/02/27 06:44:40;;;;;;;;;;;17.90;41.30;;;;;;1579726;74;736;-76
2024/02/27 06:46:42;;;;;;;;;;;17.90;41.40;;;;;;1579420;74;1671;-78
2024/02/27 06:48:45;;;;;;;;;;;17.90;41.30;;;;;;1583746;74;1927;-78
2024/02/27 06:50:47;;;;;;;;;;;17.80;41.20;;;;;;1577944;74;1136;-79
2024/02/27 06:52:48;;;;;;;;;;;17.80;41.20;;;;;;1575069;74;612;-77
2024/02/27 06:54:51;;;;;;;;;;;17.80;41.20;;;;;;1585818;74;712;-81
2024/02/27 06:56:53;;;;;;;;;;;17.80;41.20;;;;;;1578598;75;735;-79
2024/02/27 06:58:55;;;;;;;;;;;17.90;41.30;;;;;;1579062;74;715;-77
2024/02/27 07:00:57;;;;;;;;;;;17.90;41.40;;;;;;1579184;74;1148;-76
2024/02/27 07:02:59;;;;;;;;;;;17.80;41.20;;;;;;1574944;74;805;-79
2024/02/27 07:05:01;;;;;;;;;;;17.90;41.30;;;;;;1569869;74;694;-79
2024/02/27 07:07:03;;;;;;;;;;;17.80;41.10;;;;;;1573857;74;1631;-78
2024/02/27 07:09:08;;;;;;;;;;;17.80;41.10;;;;;;1563483;74;1946;-79
2024/02/27 07:11:09;;;;;;;;;;;17.90;41.30;;;;;;1567777;74;1145;-79
2024/02/27 07:13:12;;;;;;;;;;;17.80;41.10;;;;;;1574316;74;647;-79
2024/02/27 07:15:14;;;;;;;;;;;17.90;41.20;;;;;;1572882;74;662;-79
2024/02/27 07:17:16;;;;;;;;;;;17.80;41.10;;;;;;1565334;74;765;-78
2024/02/27 07:19:23;;;;;;;;;;;17.80;41.10;;;;;;1574916;74;800;-77
2024/02/27 07:21:22;;;;;;;;;;;17.90;41.30;;;;;;1567033;74;1128;-79
2024/02/27 07:23:24;;;;;;;;;;;17.80;41.20;;;;;;1560863;74;686;-78
2024/02/27 07:25:26;;;;;;;;;;;17.80;41.10;;;;;;1582175;74;779;-77
2024/02/27 07:27:28;;;;;;;;;;;17.90;41.30;;;;;;1581100;74;1930;-77
2024/02/27 07:29:30;;;;;;;;;;;17.80;41.10;;;;;;1583025;74;585;-77
2024/02/27 07:31:32;;;;;;;;;;;17.80;41.10;;;;;;1574186;74;1085;-79
2024/02/27 07:33:33;;;;;;;;;;;17.90;41.20;;;;;;1563429;74;661;-78
2024/02/27 07:35:35;;;;;;;;;;;17.90;41.20;;;;;;1572655;74;690;-80
2024/02/27 07:37:41;;;;;;;;;;;17.80;41.10;;;;;;1578191;74;687;-77
2024/02/27 07:39:41;;;;;;;;;;;17.90;41.30;;;;;;1577290;74;1153;-77
2024/02/27 07:41:43;;;;;;;;;;;17.80;41.10;;;;;;1578063;74;610;-77
2024/02/27 07:43:45;;;;;;;;;;;17.90;41.30;;;;;;1579000;74;794;-80
2024/02/27 07:45:51;;;;;;;;;;;17.90;41.20;;;;;;1580273;74;838;-78
2024/02/27 07:47:50;;;;;;;;;;;17.90;41.20;;;;;;1566536;74;1937;-78
2024/02/27 07:49:52;;;;;;;;;;;17.80;41.10;;;;;;1576058;74;1107;-78
2024/02/27 07:51:54;;;;;;;;;;;17.90;41.30;;;;;;1575426;74;695;-79
2024/02/27 07:53:56;;;;;;;;;;;17.90;41.20;;;;;;1573167;74;726;-78
2024/02/27 07:55:58;;;;;;;;;;;17.80;41.10;;;;;;1573556;74;751;-79
2024/02/27 07:58:00;;;;;;;;;;;17.80;41.10;;;;;;1583292;74;678;-78
2024/02/27 08:00:02;;;;;;;;;;;17.80;41.10;;;;;;1572653;74;1112;-78
2024/02/27 08:02:04;;;;;;;;;;;17.90;41.20;;;;;;1571281;74;1473;-78
2024/02/27 08:04:06;;;;;;;;;;;17.90;41.20;;;;;;1576252;74;739;-79
2024/02/27 08:06:08;;;;;;;;;;;17.80;41.10;;;;;;1583721;74;669;-80
2024/02/27 08:08:12;;;;;;;;;;;17.80;41.00;;;;;;1584261;75;1937;-76
2024/02/27 08:10:14;;;;;;;;;;;17.90;41.20;;;;;;1574174;74;1169;-79
2024/02/27 08:12:16;;;;;;;;;;;17.80;41.10;;;;;;1577472;74;747;-78
2024/02/27 08:14:17;;;;;;;;;;;17.80;41.10;;;;;;1569561;74;685;-77
2024/02/27 08:16:19;;;;;;;;;;;17.80;41.10;;;;;;1574569;74;944;-77
2024/02/27 08:18:21;;;;;;;;;;;17.90;41.30;;;;;;1574216;74;747;-80
2024/02/27 08:20:23;;;;;;;;;;;17.90;41.20;;;;;;1567024;74;1145;-81
2024/02/27 08:22:25;;;;;;;;;;;17.90;41.30;;;;;;1561686;74;776;-78
2024/02/27 08:24:27;;;;;;;;;;;17.80;41.00;;;;;;1571536;74;719;-78
2024/02/27 08:26:29;;;;;;;;;;;17.90;41.20;;;;;;1580722;74;671;-78
2024/02/27 08:28:31;;;;;;;;;;;17.80;41.10;;;;;;1564577;74;1931;-77
2024/02/27 08:30:33;;;;;;;;;;;17.80;41.00;;;;;;1579247;74;1074;-78
2024/02/27 08:32:35;;;;;;;;;;;17.90;41.10;;;;;;1579025;74;721;-78
2024/02/27 08:34:37;;;;;;;;;;;17.90;41.20;;;;;;1565853;74;741;-79
2024/02/27 08:36:39;;;;;;;;;;;17.90;41.20;;;;;;1581181;74;643;-77
2024/02/27 08:38:44;;;;;;;;;;;17.90;41.20;;;;;;1570580;74;838;-76
2024/02/27 08:40:46;;;;;;;;;;;17.90;41.20;;;;;;1582150;74;1121;-77
2024/02/27 08:42:47;;;;;;;;;;;17.90;41.20;;;;;;1585134;74;662;-79
2024/02/27 08:44:49;;;;;;;;;;;17.90;41.30;;;;;;1569535;74;740;-78
2024/02/27 08:46:51;;;;;;;;;;;17.80;41.10;;;;;;1563277;74;743;-75
2024/02/27 08:48:53;;;;;;;;;;;17.80;41.10;;;;;;1565657;74;1927;-84
2024/02/27 08:50:55;;;;;;;;;;;17.90;41.30;;;;;;1576112;74;1133;-78
2024/02/27 08:52:57;;;;;;;;;;;17.90;41.30;;;;;;1570821;74;684;-79
2024/02/27 08:54:59;;;;;;;;;;;17.90;41.30;;;;;;1580954;74;668;-77
2024/02/27 08:57:01;;;;;;;;;;;17.90;41.30;;;;;;1573431;74;694;-78
2024/02/27 08:59:03;;;;;;;;;;;17.90;41.30;;;;;;1582785;74;1543;-81
2024/02/27 09:01:04;;;;;;;;;;;17.90;41.30;;;;;;1584591;74;1190;-78
2024/02/27 09:03:06;;;;;;;;;;;17.90;41.30;;;;;;1577491;74;889;-80
2024/02/27 09:05:08;;;;;;;;;;;17.90;41.30;;;;;;1580362;74;730;-81
2024/02/27 09:07:11;;;;;;;;;;;17.90;41.30;;;;;;1572606;74;729;-81
2024/02/27 09:09:12;;;;;;;;;;;17.80;41.20;;;;;;1577189;74;1909;-81
2024/02/27 09:11:14;;;;;;;;;;;17.90;41.30;;;;;;1572310;74;1116;-75
2024/02/27 09:13:16;;;;;;;;;;;17.80;41.20;;;;;;1573062;74;630;-76
2024/02/27 09:15:18;;;;;;;;;;;17.90;41.30;;;;;;1574450;75;788;-74
2024/02/27 09:17:20;;;;;;;;;;;17.90;41.30;;;;;;1577660;74;704;-75
2024/02/27 09:19:23;;;;;;;;;;;17.80;41.10;;;;;;1572026;74;659;-78
2024/02/27 09:21:25;;;;;;;;;;;17.90;41.30;;;;;;1581477;74;1074;-75
2024/02/27 09:23:27;;;;;;;;;;;17.90;41.30;;;;;;1580692;75;705;-76
2024/02/27 09:25:29;;;;;;;;;;;17.90;41.30;;;;;;1573456;74;734;-75
2024/02/27 09:27:34;;;;;;;;;;;17.90;41.30;;;;;;1582279;74;662;-75
2024/02/27 09:29:35;;;;;;;;;;;17.90;41.30;;;;;;1584669;74;1917;-74
2024/02/27 09:31:37;;;;;;;;;;;17.90;41.30;;;;;;1585244;74;730;-80
2024/02/27 09:33:39;;;;;;;;;;;17.90;41.30;;;;;;1582289;74;669;-75
2024/02/27 09:35:45;;;;;;;;;;;17.90;41.30;;;;;;1580602;74;643;-78
2024/02/27 09:37:44;;;;;;;;;;;17.90;41.30;;;;;;1573555;74;779;-77
2024/02/27 09:39:46;;;;;;;;;;;17.90;41.30;;;;;;1585119;74;1124;-76
2024/02/27 09:42:05;;;;;;;;;;;17.90;41.20;;;;;;1582826;74;680;-67
2024/02/27 09:44:07;;;;;;;;;;;17.90;41.20;;;;;;1576805;74;1906;-82
2024/02/27 09:46:09;;;;;;;;;;;17.80;39.70;;;;;;1578773;74;647;-79
2024/02/27 09:48:11;;;;;;;;;;;17.80;40.30;;;;;;1569158;74;596;-80
2024/02/27 09:50:14;;;;;;;;;;;17.80;40.60;;;;;;1578504;74;1118;-79
2024/02/27 09:52:16;;;;;;;;;;;17.80;40.90;;;;;;1579873;74;720;-81
2024/02/27 09:54:19;;;;;;;;;;;17.80;41.00;;;;;;1577170;74;823;-78
2024/02/27 09:56:24;;;;;;;;;;;17.80;41.10;;;;;;1579414;74;1507;-79
2024/02/27 09:58:24;;;;;;;;;;;17.80;41.10;;;;;;1576745;74;1200;-79
2024/02/27 10:00:26;;;;;;;;;;;17.90;41.30;;;;;;1580032;74;1194;-78
2024/02/27 10:02:28;;;;;;;;;;;17.80;41.10;;;;;;1583019;74;643;-76
2024/02/27 10:04:30;;;;;;;;;;;17.80;41.10;;;;;;1577949;74;738;-77
2024/02/27 10:06:32;;;;;;;;;;;17.80;41.20;;;;;;1582014;74;683;-80
2024/02/27 10:08:34;;;;;;;;;;;17.80;41.20;;;;;;1572345;74;1955;-78
2024/02/27 10:10:37;;;;;;;;;;;17.80;41.20;;;;;;1581788;74;1150;-77
2024/02/27 10:12:39;;;;;;;;;;;17.90;41.30;;;;;;1582249;74;785;-79
2024/02/27 10:14:41;;;;;;;;;;;17.80;41.20;;;;;;1582404;74;681;-77
2024/02/27 10:16:43;;;;;;;;;;;17.90;41.40;;;;;;1579766;74;688;-78
2024/02/27 10:18:45;;;;;;;;;;;17.80;41.20;;;;;;1576968;74;883;-84
2024/02/27 10:20:47;;;;;;;;;;;17.90;41.40;;;;;;1578186;74;1119;-77
2024/02/27 10:22:49;;;;;;;;;;;17.80;41.30;;;;;;1577163;74;716;-80
2024/02/27 10:25:10;;;;;;;;;;;17.80;41.20;;;;;;1581215;74;733;-77
2024/02/27 10:27:11;;;;;;;;;;;17.80;41.20;;;;;;1578920;74;1138;-80
2024/02/27 10:29:13;;;;;;;;;;;17.60;41.10;;;;;;1571658;74;1935;-76
2024/02/27 10:31:14;;;;;;;;;;;17.90;41.40;;;;;;1584567;74;1188;-80
2024/02/27 10:33:16;;;;;;;;;;;17.90;41.40;;;;;;1570820;74;694;-76
2024/02/27 10:35:19;;;;;;;;;;;17.90;41.40;;;;;;1568503;74;742;-75
2024/02/27 10:37:24;;;;;;;;;;;17.90;41.50;;;;;;1581135;74;639;-80
2024/02/27 10:39:24;;;;;;;;;;;17.90;41.40;;;;;;1566258;74;991;-80
2024/02/27 10:41:26;;;;;;;;;;;17.90;41.50;;;;;;1586025;74;1084;-78
2024/02/27 10:43:28;;;;;;;;;;;18.00;41.50;;;;;;1581772;74;744;-76
2024/02/27 10:45:32;;;;;;;;;;;17.90;41.50;;;;;;1581289;74;708;-79
2024/02/27 10:47:34;;;;;;;;;;;17.90;41.50;;;;;;1570443;74;1116;-80
2024/02/27 10:49:35;;;;;;;;;;;17.90;41.50;;;;;;1575964;74;1928;-77
2024/02/27 10:51:37;;;;;;;;;;;17.90;41.50;;;;;;1580787;74;1575;-78
2024/02/27 10:53:40;;;;;;;;;;;17.90;41.50;;;;;;1568824;74;676;-77
2024/02/27 10:55:42;;;;;;;;;;;17.90;41.50;;;;;;1580697;74;714;-77
2024/02/27 10:57:44;;;;;;;;;;;17.90;41.50;;;;;;1574189;74;675;-77
2024/02/27 10:59:46;;;;;;;;;;;17.90;41.50;;;;;;1563144;74;1146;-78
2024/02/27 11:01:48;;;;;;;;;;;17.90;41.50;;;;;;1577936;74;749;-77
2024/02/27 11:03:51;;;;;;;;;;;17.90;41.60;;;;;;1562788;74;761;-76
2024/02/27 11:05:54;;;;;;;;;;;17.90;41.50;;;;;;1585534;74;591;-76
2024/02/27 11:07:56;;;;;;;;;;;17.80;41.40;;;;;;1576921;74;677;-80
2024/02/27 11:09:57;;;;;;;;;;;17.90;41.50;;;;;;1579088;74;1925;-79
2024/02/27 11:12:01;;;;;;;;;;;17.90;41.60;;;;;;1576687;74;732;-80
2024/02/27 11:14:06;;;;;;;;;;;17.90;41.50;;;;;;1581401;74;1020;-76
2024/02/27 11:16:09;;;;;;;;;;;17.90;41.60;;;;;;1576868;74;694;-81
2024/02/27 11:18:11;;;;;;;;;;;17.90;41.50;;;;;;1572245;74;666;-77
2024/02/27 11:20:15;;;;;;;;;;;17.90;41.60;;;;;;1582737;74;1092;-76
2024/02/27 11:22:18;;;;;;;;;;;17.80;41.40;;;;;;1576999;75;1819;-79
2024/02/27 11:24:20;;;;;;;;;;;17.90;41.60;;;;;;1575845;74;670;-76
2024/02/27 11:26:22;;;;;;;;;;;17.90;41.60;;;;;;1508104;78;686;-78
2024/02/27 11:28:24;;;;;;;;;;;17.90;41.60;;;;;;1572464;74;723;-79
2024/02/27 11:30:26;;;;;;;;;;;17.90;41.60;;;;;;1580589;74;1933;-77
2024/02/27 11:32:30;;;;;;;;;;;18.00;41.70;;;;;;1580632;74;704;-77
2024/02/27 11:34:37;;;;;;;;;;;17.90;41.60;;;;;;1579636;74;1217;-79
2024/02/27 11:36:37;;;;;;;;;;;18.00;41.60;;;;;;1577434;74;787;-75
2024/02/27 11:38:39;;;;;;;;;;;17.90;41.60;;;;;;1579296;74;730;-78
2024/02/27 11:40:46;;;;;;;;;;;17.90;41.60;;;;;;1550099;75;1083;-78
2024/02/27 11:42:48;;;;;;;;;;;17.90;41.60;;;;;;1580435;74;693;-79
2024/02/27 11:45:06;;;;;;;;;;;17.90;41.60;;;;;;1579033;74;673;-78
2024/02/27 11:47:09;;;;;;;;;;;18.00;41.70;;;;;;1580384;74;1554;-76
2024/02/27 11:49:13;;;;;;;;;;;17.90;41.70;;;;;;1575373;74;1946;-76
2024/02/27 11:51:16;;;;;;;;;;;17.90;41.70;;;;;;1549541;75;1122;-77
2024/02/27 11:53:23;;;;;;;;;;;17.80;41.60;;;;;;1576827;74;1096;-77
2024/02/27 11:55:25;;;;;;;;;;;17.90;41.80;;;;;;1573090;74;756;-74
2024/02/27 11:57:27;;;;;;;;;;;17.90;41.80;;;;;;1570556;74;718;-75
2024/02/27 11:59:31;;;;;;;;;;;17.90;41.80;;;;;;1572370;74;668;-76
2024/02/27 12:01:33;;;;;;;;;;;17.90;41.70;;;;;;1575276;74;1120;-76
2024/02/27 12:03:35;;;;;;;;;;;17.90;41.80;;;;;;1580209;74;704;-76
2024/02/27 12:05:37;;;;;;;;;;;17.90;41.80;;;;;;1565411;74;678;-76
2024/02/27 12:07:39;;;;;;;;;;;17.90;41.80;;;;;;1573347;74;692;-77
2024/02/27 12:09:41;;;;;;;;;;;17.90;41.80;;;;;;1565663;74;1926;-76